Fort Kent Mills, ME (04744)

9:52 AM EST on February 24, 2017 (GMT -0500)
Apex Wx | | Change Station
Active Advisory: Freezing Rain Advisory

Elev 541 ft 47.25 °N, 68.58 °W | Updated 24 seconds ago

Overcast
Overcast
39.4 °F
Feels Like 36 °F
N
5.0
Wind Variable Wind from WSW
Gusts 9.0 mph

Today
High -- | Low -- °F
--% Chance of Precip.
Yesterday
High -- | Low -- °F
Precip. -- in
Pressure 29.86 in
Visibility 10.0 miles
Clouds Overcast 900 ft
Windchill 36 °F
Dew Point 36 °F
Humidity 88%
Rainfall 0.01 in
Snow Depth Not available.
6:23 AM 5:12 PM
Waning Crescent, 5% visible
SPECI KFVE 241417Z AUTO 28007KT 10SM OVC009 03/00 A2986 RMK AO2 T00280000
Pressure 29.86 in
Visibility 10.0 miles
Clouds Overcast 900 ft
Windchill 36 °F
Dew Point 36 °F
Humidity 88%
Rainfall 0.01 in
Snow Depth Not available.
6:23 AM 5:12 PM
Waning Crescent, 5% visible
SPECI KFVE 241417Z AUTO 28007KT 10SM OVC009 03/00 A2986 RMK AO2 T00280000

Get Your Daily Forecast Email!

Thanks for signing up!

Be on the lookout for a verification email in your inbox.

You'll start receiving the daily forecast at 8 AM.

×

10-Day Weather Forecast

Almanac

Astronomy

Feb. 24, 2017 Rise Set
Actual Time
Civil Twilight
Nautical Twilight
Astronomical Twilight
Moon
Length of Visible Light
Length of Day
Tomorrow will be .
, % of the Moon is Illuminated

Today's Extremes

State Highs State Lows

Community

WunderPhotos

Upload Photos

1,962,540 photos uploaded!

WunderBlog® & News

Nearby

Air Quality

  Air Quality AQ Index Pollutant
Not available.

Snow Depth

Station Depth Elevation

Earthquake Activity

City Distance Mag. Time & Date
Minimum magnitude displayed is 2.5.

Coastal Water Temperatures

Place Temperature

Stations

Nearby Weather Stations

Station Location Temp. Windchill Dew Point Humidity Wind Precip. Elev Updated Type
                   

Watches & Warnings

Freezing Rain Advisory
Issued: 5:01 AM EST Feb. 24, 2017 – National Weather Service

... Freezing Rain Advisory in effect from 11 PM this evening to
10 am EST Saturday...

The National Weather Service in Caribou has issued a Freezing
Rain Advisory... which is in effect from 11 PM this evening to
10 am EST Saturday.

* Locations... all of northern Maine including The Mount katahdin
region.

*Hazard types... freezing rain.

* Ice accumulations... up to one tenth of an inch.

* Timing... tonight into Saturday morning.

* Impacts... icing may create slippery Road conditions and
produce scattered power outages.

* Winds... east 5 to 10 mph.

* Temperatures... in the upper 20s to lower 30s.


Precautionary/preparedness actions...

A Freezing Rain Advisory means that periods of freezing rain or
freezing drizzle will cause travel difficulties. Be prepared for
slippery roads. Slow down and use caution while driving.



Hewitt